sensor_id;sensor_type;location;lat;lon;timestamp;temperature;humidity
33699;DHT22;20032;52.436;13.312;2023-08-31T00:00:31;16.30;99.90
33699;DHT22;20032;52.436;13.312;2023-08-31T00:03:00;16.30;99.90
33699;DHT22;20032;52.436;13.312;2023-08-31T00:05:25;16.30;99.90
33699;DHT22;20032;52.436;13.312;2023-08-31T00:07:54;16.30;99.90
33699;DHT22;20032;52.436;13.312;2023-08-31T00:10:19;16.30;99.90
33699;DHT22;20032;52.436;13.312;2023-08-31T00:12:45;16.20;99.90
33699;DHT22;20032;52.436;13.312;2023-08-31T00:15:11;16.30;99.90
33699;DHT22;20032;52.436;13.312;2023-08-31T00:17:36;16.30;99.90
33699;DHT22;20032;52.436;13.312;2023-08-31T00:20:04;16.30;99.90
33699;DHT22;20032;52.436;13.312;2023-08-31T00:22:31;16.20;99.90
33699;DHT22;20032;52.436;13.312;2023-08-31T00:24:57;16.20;99.90
33699;DHT22;20032;52.436;13.312;2023-08-31T00:27:22;16.10;99.90
33699;DHT22;20032;52.436;13.312;2023-08-31T00:29:48;16.10;99.90
33699;DHT22;20032;52.436;13.312;2023-08-31T00:32:16;16.10;99.90
33699;DHT22;20032;52.436;13.312;2023-08-31T00:34:41;16.10;99.90
33699;DHT22;20032;52.436;13.312;2023-08-31T00:37:07;16.20;99.90
33699;DHT22;20032;52.436;13.312;2023-08-31T00:39:33;16.20;99.90
33699;DHT22;20032;52.436;13.312;2023-08-31T00:41:59;16.30;99.90
33699;DHT22;20032;52.436;13.312;2023-08-31T00:44:25;16.20;99.90
33699;DHT22;20032;52.436;13.312;2023-08-31T00:46:51;16.20;99.90
33699;DHT22;20032;52.436;13.312;2023-08-31T00:49:17;16.10;99.90
33699;DHT22;20032;52.436;13.312;2023-08-31T00:51:43;16.00;99.90
33699;DHT22;20032;52.436;13.312;2023-08-31T00:54:17;16.00;99.90
33699;DHT22;20032;52.436;13.312;2023-08-31T00:56:43;16.00;99.90
33699;DHT22;20032;52.436;13.312;2023-08-31T00:59:08;16.00;99.90
33699;DHT22;20032;52.436;13.312;2023-08-31T01:01:39;16.00;99.90
33699;DHT22;20032;52.436;13.312;2023-08-31T01:07:04;16.00;99.90
33699;DHT22;20032;52.436;13.312;2023-08-31T01:09:40;15.90;99.90
33699;DHT22;20032;52.436;13.312;2023-08-31T01:12:14;15.90;99.90
33699;DHT22;20032;52.436;13.312;2023-08-31T01:14:46;15.90;99.90
33699;DHT22;20032;52.436;13.312;2023-08-31T01:17:14;15.90;99.90
33699;DHT22;20032;52.436;13.312;2023-08-31T01:19:59;16.00;99.90
33699;DHT22;20032;52.436;13.312;2023-08-31T01:22:31;16.00;99.90
33699;DHT22;20032;52.436;13.312;2023-08-31T01:24:59;16.00;99.90
33699;DHT22;20032;52.436;13.312;2023-08-31T01:27:31;15.90;99.90
33699;DHT22;20032;52.436;13.312;2023-08-31T01:29:57;15.80;99.90
33699;DHT22;20032;52.436;13.312;2023-08-31T01:32:22;15.80;99.90
33699;DHT22;20032;52.436;13.312;2023-08-31T01:34:50;15.80;99.90
33699;DHT22;20032;52.436;13.312;2023-08-31T01:37:20;15.70;99.90
33699;DHT22;20032;52.436;13.312;2023-08-31T01:39:53;15.60;99.90
33699;DHT22;20032;52.436;13.312;2023-08-31T01:42:22;15.60;99.90
33699;DHT22;20032;52.436;13.312;2023-08-31T01:44:48;15.50;99.90
33699;DHT22;20032;52.436;13.312;2023-08-31T01:47:15;15.50;99.90
33699;DHT22;20032;52.436;13.312;2023-08-31T01:49:42;15.50;99.90
33699;DHT22;20032;52.436;13.312;2023-08-31T01:52:08;15.50;99.90
33699;DHT22;20032;52.436;13.312;2023-08-31T01:54:34;15.50;99.90
33699;DHT22;20032;52.436;13.312;2023-08-31T01:57:00;15.40;99.90
33699;DHT22;20032;52.436;13.312;2023-08-31T01:59:25;15.40;99.90
33699;DHT22;20032;52.436;13.312;2023-08-31T02:01:52;15.40;99.90
33699;DHT22;20032;52.436;13.312;2023-08-31T02:04:17;15.30;99.90
33699;DHT22;20032;52.436;13.312;2023-08-31T02:06:43;15.20;99.90
33699;DHT22;20032;52.436;13.312;2023-08-31T02:09:08;15.20;99.90
33699;DHT22;20032;52.436;13.312;2023-08-31T02:11:34;15.10;99.90
33699;DHT22;20032;52.436;13.312;2023-08-31T02:14:03;15.10;99.90
33699;DHT22;20032;52.436;13.312;2023-08-31T02:16:30;15.00;99.90
33699;DHT22;20032;52.436;13.312;2023-08-31T02:18:55;15.00;99.90
33699;DHT22;20032;52.436;13.312;2023-08-31T02:21:21;15.00;99.90
33699;DHT22;20032;52.436;13.312;2023-08-31T02:23:46;15.00;99.90
33699;DHT22;20032;52.436;13.312;2023-08-31T02:26:12;14.90;99.90
33699;DHT22;20032;52.436;13.312;2023-08-31T02:28:37;14.80;99.90
33699;DHT22;20032;52.436;13.312;2023-08-31T02:31:03;14.70;99.90
33699;DHT22;20032;52.436;13.312;2023-08-31T02:33:29;14.70;99.90
33699;DHT22;20032;52.436;13.312;2023-08-31T02:35:55;14.80;99.90
33699;DHT22;20032;52.436;13.312;2023-08-31T02:38:21;14.80;99.90
33699;DHT22;20032;52.436;13.312;2023-08-31T02:40:47;14.80;99.90
33699;DHT22;20032;52.436;13.312;2023-08-31T02:43:13;14.70;99.90
33699;DHT22;20032;52.436;13.312;2023-08-31T02:45:39;14.80;99.90
33699;DHT22;20032;52.436;13.312;2023-08-31T02:48:06;14.80;99.90
33699;DHT22;20032;52.436;13.312;2023-08-31T02:50:33;14.80;99.90
33699;DHT22;20032;52.436;13.312;2023-08-31T02:52:59;14.80;99.90
33699;DHT22;20032;52.436;13.312;2023-08-31T02:55:25;14.80;99.90
33699;DHT22;20032;52.436;13.312;2023-08-31T02:57:50;14.70;99.90
33699;DHT22;20032;52.436;13.312;2023-08-31T03:00:16;14.70;99.90
33699;DHT22;20032;52.436;13.312;2023-08-31T03:02:42;14.70;99.90
33699;DHT22;20032;52.436;13.312;2023-08-31T03:05:08;14.70;99.90
33699;DHT22;20032;52.436;13.312;2023-08-31T03:07:34;14.70;99.90
33699;DHT22;20032;52.436;13.312;2023-08-31T03:09:59;14.70;99.90
33699;DHT22;20032;52.436;13.312;2023-08-31T03:12:25;14.80;99.90
33699;DHT22;20032;52.436;13.312;2023-08-31T03:14:50;14.70;99.90
33699;DHT22;20032;52.436;13.312;2023-08-31T03:17:16;14.80;99.90
33699;DHT22;20032;52.436;13.312;2023-08-31T03:19:41;14.80;99.90
33699;DHT22;20032;52.436;13.312;2023-08-31T03:22:07;14.80;99.90
33699;DHT22;20032;52.436;13.312;2023-08-31T03:24:33;14.80;99.90
33699;DHT22;20032;52.436;13.312;2023-08-31T03:26:58;14.80;99.90
33699;DHT22;20032;52.436;13.312;2023-08-31T03:29:24;14.80;99.90
33699;DHT22;20032;52.436;13.312;2023-08-31T03:31:49;14.80;99.90
33699;DHT22;20032;52.436;13.312;2023-08-31T03:34:15;14.80;99.90
33699;DHT22;20032;52.436;13.312;2023-08-31T03:36:40;14.80;99.90
33699;DHT22;20032;52.436;13.312;2023-08-31T03:39:06;14.70;99.90
33699;DHT22;20032;52.436;13.312;2023-08-31T03:41:31;14.80;99.90
33699;DHT22;20032;52.436;13.312;2023-08-31T03:43:57;14.80;99.90
33699;DHT22;20032;52.436;13.312;2023-08-31T03:46:22;14.70;99.90
33699;DHT22;20032;52.436;13.312;2023-08-31T03:48:48;14.70;99.90
33699;DHT22;20032;52.436;13.312;2023-08-31T03:51:13;14.70;99.90
33699;DHT22;20032;52.436;13.312;2023-08-31T03:53:39;14.60;99.90
33699;DHT22;20032;52.436;13.312;2023-08-31T03:56:04;14.60;99.90
33699;DHT22;20032;52.436;13.312;2023-08-31T03:58:30;14.50;99.90
33699;DHT22;20032;52.436;13.312;2023-08-31T04:00:56;14.50;99.90
33699;DHT22;20032;52.436;13.312;2023-08-31T04:03:21;14.50;99.90
33699;DHT22;20032;52.436;13.312;2023-08-31T04:05:47;14.50;99.90
33699;DHT22;20032;52.436;13.312;2023-08-31T04:08:13;14.50;99.90
33699;DHT22;20032;52.436;13.312;2023-08-31T04:10:38;14.50;99.90
33699;DHT22;20032;52.436;13.312;2023-08-31T04:13:04;14.60;99.90
33699;DHT22;20032;52.436;13.312;2023-08-31T04:15:29;14.50;99.90
33699;DHT22;20032;52.436;13.312;2023-08-31T04:17:56;14.40;99.90
33699;DHT22;20032;52.436;13.312;2023-08-31T04:20:21;14.40;99.90
33699;DHT22;20032;52.436;13.312;2023-08-31T04:22:47;14.50;99.90
33699;DHT22;20032;52.436;13.312;2023-08-31T04:25:13;14.50;99.90
33699;DHT22;20032;52.436;13.312;2023-08-31T04:27:38;14.40;99.90
33699;DHT22;20032;52.436;13.312;2023-08-31T04:30:06;14.30;99.90
33699;DHT22;20032;52.436;13.312;2023-08-31T04:32:32;14.40;99.90
33699;DHT22;20032;52.436;13.312;2023-08-31T04:34:58;14.40;99.90
33699;DHT22;20032;52.436;13.312;2023-08-31T04:37:23;14.40;99.90
33699;DHT22;20032;52.436;13.312;2023-08-31T04:39:49;14.40;99.90
33699;DHT22;20032;52.436;13.312;2023-08-31T04:42:14;14.40;99.90
33699;DHT22;20032;52.436;13.312;2023-08-31T04:44:42;14.40;99.90
33699;DHT22;20032;52.436;13.312;2023-08-31T04:47:07;14.40;99.90
33699;DHT22;20032;52.436;13.312;2023-08-31T04:49:33;14.40;99.90
33699;DHT22;20032;52.436;13.312;2023-08-31T04:51:58;14.40;99.90
33699;DHT22;20032;52.436;13.312;2023-08-31T04:54:24;14.40;99.90
33699;DHT22;20032;52.436;13.312;2023-08-31T04:56:50;14.40;99.90
33699;DHT22;20032;52.436;13.312;2023-08-31T04:59:16;14.40;99.90
33699;DHT22;20032;52.436;13.312;2023-08-31T05:01:41;14.30;99.90
33699;DHT22;20032;52.436;13.312;2023-08-31T05:04:07;14.40;99.90
33699;DHT22;20032;52.436;13.312;2023-08-31T05:06:32;14.40;99.90
33699;DHT22;20032;52.436;13.312;2023-08-31T05:08:58;14.40;99.90
33699;DHT22;20032;52.436;13.312;2023-08-31T05:11:23;14.40;99.90
33699;DHT22;20032;52.436;13.312;2023-08-31T05:13:49;14.40;99.90
33699;DHT22;20032;52.436;13.312;2023-08-31T05:16:14;14.40;99.90
33699;DHT22;20032;52.436;13.312;2023-08-31T05:18:40;14.40;99.90
33699;DHT22;20032;52.436;13.312;2023-08-31T05:21:06;14.50;99.90
33699;DHT22;20032;52.436;13.312;2023-08-31T05:23:32;14.50;99.90
33699;DHT22;20032;52.436;13.312;2023-08-31T05:25:59;14.50;99.90
33699;DHT22;20032;52.436;13.312;2023-08-31T05:28:27;14.50;99.90
33699;DHT22;20032;52.436;13.312;2023-08-31T05:30:57;14.50;99.90
33699;DHT22;20032;52.436;13.312;2023-08-31T05:33:23;14.50;99.90
33699;DHT22;20032;52.436;13.312;2023-08-31T05:35:51;14.50;99.90
33699;DHT22;20032;52.436;13.312;2023-08-31T05:38:18;14.60;99.90
33699;DHT22;20032;52.436;13.312;2023-08-31T05:40:44;14.60;99.90
33699;DHT22;20032;52.436;13.312;2023-08-31T05:43:12;14.60;99.90
33699;DHT22;20032;52.436;13.312;2023-08-31T05:45:39;14.60;99.90
33699;DHT22;20032;52.436;13.312;2023-08-31T05:48:08;14.60;99.90
33699;DHT22;20032;52.436;13.312;2023-08-31T05:50:34;14.70;99.90
33699;DHT22;20032;52.436;13.312;2023-08-31T05:53:02;14.70;99.90
33699;DHT22;20032;52.436;13.312;2023-08-31T05:55:28;14.70;99.90
33699;DHT22;20032;52.436;13.312;2023-08-31T05:57:53;14.80;99.90
33699;DHT22;20032;52.436;13.312;2023-08-31T06:00:19;14.80;99.90
33699;DHT22;20032;52.436;13.312;2023-08-31T06:02:44;14.80;99.90
33699;DHT22;20032;52.436;13.312;2023-08-31T06:05:10;14.80;99.90
33699;DHT22;20032;52.436;13.312;2023-08-31T06:07:38;14.90;99.90
33699;DHT22;20032;52.436;13.312;2023-08-31T06:10:04;14.90;99.90
33699;DHT22;20032;52.436;13.312;2023-08-31T06:12:30;14.90;99.90
33699;DHT22;20032;52.436;13.312;2023-08-31T06:14:55;14.90;99.90
33699;DHT22;20032;52.436;13.312;2023-08-31T06:17:21;14.90;99.90
33699;DHT22;20032;52.436;13.312;2023-08-31T06:19:46;15.00;99.90
33699;DHT22;20032;52.436;13.312;2023-08-31T06:22:12;15.00;99.90
33699;DHT22;20032;52.436;13.312;2023-08-31T06:24:37;15.00;99.90
33699;DHT22;20032;52.436;13.312;2023-08-31T06:27:03;15.00;99.90
33699;DHT22;20032;52.436;13.312;2023-08-31T06:29:28;15.00;99.90
33699;DHT22;20032;52.436;13.312;2023-08-31T06:31:54;15.00;99.90
33699;DHT22;20032;52.436;13.312;2023-08-31T06:34:19;14.90;99.90
33699;DHT22;20032;52.436;13.312;2023-08-31T06:36:45;14.90;99.90
33699;DHT22;20032;52.436;13.312;2023-08-31T06:39:10;14.90;99.90
33699;DHT22;20032;52.436;13.312;2023-08-31T06:41:36;14.90;99.90
33699;DHT22;20032;52.436;13.312;2023-08-31T06:44:02;14.90;99.90
33699;DHT22;20032;52.436;13.312;2023-08-31T06:46:29;14.90;99.90
33699;DHT22;20032;52.436;13.312;2023-08-31T06:48:55;15.00;99.90
33699;DHT22;20032;52.436;13.312;2023-08-31T06:51:20;14.90;99.90
33699;DHT22;20032;52.436;13.312;2023-08-31T06:53:46;14.80;99.90
33699;DHT22;20032;52.436;13.312;2023-08-31T06:56:11;14.80;99.90
33699;DHT22;20032;52.436;13.312;2023-08-31T06:58:37;14.80;99.90
33699;DHT22;20032;52.436;13.312;2023-08-31T07:01:06;14.80;99.90
33699;DHT22;20032;52.436;13.312;2023-08-31T07:03:31;14.80;99.90
33699;DHT22;20032;52.436;13.312;2023-08-31T07:05:57;14.80;99.90
33699;DHT22;20032;52.436;13.312;2023-08-31T07:08:22;14.80;99.90
33699;DHT22;20032;52.436;13.312;2023-08-31T07:10:50;14.80;99.90
33699;DHT22;20032;52.436;13.312;2023-08-31T07:13:16;14.70;99.90
33699;DHT22;20032;52.436;13.312;2023-08-31T07:15:41;14.70;99.90
33699;DHT22;20032;52.436;13.312;2023-08-31T07:18:07;14.80;99.90
33699;DHT22;20032;52.436;13.312;2023-08-31T07:20:33;14.90;99.90
33699;DHT22;20032;52.436;13.312;2023-08-31T07:22:59;14.90;99.90
33699;DHT22;20032;52.436;13.312;2023-08-31T07:25:25;14.90;99.90
33699;DHT22;20032;52.436;13.312;2023-08-31T07:27:50;14.90;99.90
33699;DHT22;20032;52.436;13.312;2023-08-31T07:30:16;15.00;99.90
33699;DHT22;20032;52.436;13.312;2023-08-31T07:32:42;15.10;99.90
33699;DHT22;20032;52.436;13.312;2023-08-31T07:35:08;15.10;99.90
33699;DHT22;20032;52.436;13.312;2023-08-31T07:37:33;15.20;99.90
33699;DHT22;20032;52.436;13.312;2023-08-31T07:39:59;15.20;99.90
33699;DHT22;20032;52.436;13.312;2023-08-31T07:42:25;15.20;99.90
33699;DHT22;20032;52.436;13.312;2023-08-31T07:44:50;15.20;99.90
33699;DHT22;20032;52.436;13.312;2023-08-31T07:47:16;15.20;99.90
33699;DHT22;20032;52.436;13.312;2023-08-31T07:49:41;15.20;99.90
33699;DHT22;20032;52.436;13.312;2023-08-31T07:52:07;15.20;99.90
33699;DHT22;20032;52.436;13.312;2023-08-31T07:54:33;15.10;99.90
33699;DHT22;20032;52.436;13.312;2023-08-31T07:56:59;15.10;99.90
33699;DHT22;20032;52.436;13.312;2023-08-31T07:59:25;15.20;99.90
33699;DHT22;20032;52.436;13.312;2023-08-31T08:01:50;15.30;99.90
33699;DHT22;20032;52.436;13.312;2023-08-31T08:04:16;15.40;99.90
33699;DHT22;20032;52.436;13.312;2023-08-31T08:06:45;15.50;99.90
33699;DHT22;20032;52.436;13.312;2023-08-31T08:09:11;15.70;99.90
33699;DHT22;20032;52.436;13.312;2023-08-31T08:11:37;15.80;99.90
33699;DHT22;20032;52.436;13.312;2023-08-31T08:14:03;15.90;99.90
33699;DHT22;20032;52.436;13.312;2023-08-31T08:16:29;16.00;99.90
33699;DHT22;20032;52.436;13.312;2023-08-31T08:18:55;16.20;99.90
33699;DHT22;20032;52.436;13.312;2023-08-31T08:21:20;16.20;99.90
33699;DHT22;20032;52.436;13.312;2023-08-31T08:23:46;16.00;99.90
33699;DHT22;20032;52.436;13.312;2023-08-31T08:26:11;15.90;99.90
33699;DHT22;20032;52.436;13.312;2023-08-31T08:28:36;15.80;99.90
33699;DHT22;20032;52.436;13.312;2023-08-31T08:31:02;15.80;99.90
33699;DHT22;20032;52.436;13.312;2023-08-31T08:33:29;15.90;99.90
33699;DHT22;20032;52.436;13.312;2023-08-31T08:35:57;15.90;99.90
33699;DHT22;20032;52.436;13.312;2023-08-31T08:38:22;16.00;99.90
33699;DHT22;20032;52.436;13.312;2023-08-31T08:40:49;16.10;99.90
33699;DHT22;20032;52.436;13.312;2023-08-31T08:43:14;16.20;99.90
33699;DHT22;20032;52.436;13.312;2023-08-31T08:45:40;16.30;99.90
33699;DHT22;20032;52.436;13.312;2023-08-31T08:48:08;16.30;99.90
33699;DHT22;20032;52.436;13.312;2023-08-31T08:50:35;16.50;99.90
33699;DHT22;20032;52.436;13.312;2023-08-31T08:53:03;16.60;99.90
33699;DHT22;20032;52.436;13.312;2023-08-31T08:55:30;16.70;99.90
33699;DHT22;20032;52.436;13.312;2023-08-31T08:57:58;16.90;99.90
33699;DHT22;20032;52.436;13.312;2023-08-31T09:00:26;17.10;99.90
33699;DHT22;20032;52.436;13.312;2023-08-31T09:02:53;17.30;99.90
33699;DHT22;20032;52.436;13.312;2023-08-31T09:05:18;17.40;99.90
33699;DHT22;20032;52.436;13.312;2023-08-31T09:08:01;17.50;99.90
33699;DHT22;20032;52.436;13.312;2023-08-31T09:10:37;17.40;99.90
33699;DHT22;20032;52.436;13.312;2023-08-31T09:13:08;17.30;99.90
33699;DHT22;20032;52.436;13.312;2023-08-31T09:15:44;17.60;99.90
33699;DHT22;20032;52.436;13.312;2023-08-31T09:18:30;17.80;99.90
33699;DHT22;20032;52.436;13.312;2023-08-31T09:20:58;18.00;99.90
33699;DHT22;20032;52.436;13.312;2023-08-31T09:23:23;17.80;99.90
33699;DHT22;20032;52.436;13.312;2023-08-31T09:25:51;17.60;99.90
33699;DHT22;20032;52.436;13.312;2023-08-31T09:28:20;17.40;99.90
33699;DHT22;20032;52.436;13.312;2023-08-31T09:30:48;17.30;99.90
33699;DHT22;20032;52.436;13.312;2023-08-31T09:33:15;17.10;99.90
33699;DHT22;20032;52.436;13.312;2023-08-31T09:35:57;17.00;99.90
33699;DHT22;20032;52.436;13.312;2023-08-31T09:38:23;17.20;99.90
33699;DHT22;20032;52.436;13.312;2023-08-31T09:40:49;17.50;99.90
33699;DHT22;20032;52.436;13.312;2023-08-31T09:43:24;18.00;99.90
33699;DHT22;20032;52.436;13.312;2023-08-31T09:45:50;18.20;99.90
33699;DHT22;20032;52.436;13.312;2023-08-31T09:48:19;18.30;99.90
33699;DHT22;20032;52.436;13.312;2023-08-31T09:50:47;18.60;99.90
33699;DHT22;20032;52.436;13.312;2023-08-31T09:53:16;18.90;99.90
33699;DHT22;20032;52.436;13.312;2023-08-31T09:55:43;19.40;99.90
33699;DHT22;20032;52.436;13.312;2023-08-31T09:58:09;19.70;99.90
33699;DHT22;20032;52.436;13.312;2023-08-31T10:00:36;19.60;99.90
33699;DHT22;20032;52.436;13.312;2023-08-31T10:03:04;19.60;99.90
33699;DHT22;20032;52.436;13.312;2023-08-31T10:05:31;19.80;99.90
33699;DHT22;20032;52.436;13.312;2023-08-31T10:07:58;19.70;99.90
33699;DHT22;20032;52.436;13.312;2023-08-31T10:10:24;19.50;99.90
33699;DHT22;20032;52.436;13.312;2023-08-31T10:12:50;19.40;99.90
33699;DHT22;20032;52.436;13.312;2023-08-31T10:15:17;19.20;99.90
33699;DHT22;20032;52.436;13.312;2023-08-31T10:17:43;19.20;99.90
33699;DHT22;20032;52.436;13.312;2023-08-31T10:20:11;19.50;99.90
33699;DHT22;20032;52.436;13.312;2023-08-31T10:22:37;19.60;99.90
33699;DHT22;20032;52.436;13.312;2023-08-31T10:25:05;19.70;99.90
33699;DHT22;20032;52.436;13.312;2023-08-31T10:27:47;19.50;99.90
33699;DHT22;20032;52.436;13.312;2023-08-31T10:30:25;19.00;99.90
33699;DHT22;20032;52.436;13.312;2023-08-31T10:33:19;18.40;99.90
33699;DHT22;20032;52.436;13.312;2023-08-31T10:35:50;17.80;99.90
33699;DHT22;20032;52.436;13.312;2023-08-31T10:40:42;16.80;99.90
33699;DHT22;20032;52.436;13.312;2023-08-31T10:43:24;16.60;99.90
33699;DHT22;20032;52.436;13.312;2023-08-31T10:45:50;16.40;99.90
33699;DHT22;20032;52.436;13.312;2023-08-31T10:48:17;16.40;99.90
33699;DHT22;20032;52.436;13.312;2023-08-31T10:50:44;16.50;99.90
33699;DHT22;20032;52.436;13.312;2023-08-31T10:53:10;16.50;99.90
33699;DHT22;20032;52.436;13.312;2023-08-31T10:55:53;16.60;99.90
33699;DHT22;20032;52.436;13.312;2023-08-31T10:58:18;16.70;99.90
33699;DHT22;20032;52.436;13.312;2023-08-31T11:00:52;16.80;99.90
33699;DHT22;20032;52.436;13.312;2023-08-31T11:03:21;16.80;99.90
33699;DHT22;20032;52.436;13.312;2023-08-31T11:05:54;17.00;99.90
33699;DHT22;20032;52.436;13.312;2023-08-31T11:08:24;17.20;99.90
33699;DHT22;20032;52.436;13.312;2023-08-31T11:10:50;17.70;99.90
33699;DHT22;20032;52.436;13.312;2023-08-31T11:13:18;18.30;99.90
33699;DHT22;20032;52.436;13.312;2023-08-31T11:15:50;18.80;99.90
33699;DHT22;20032;52.436;13.312;2023-08-31T11:18:15;19.30;99.90
33699;DHT22;20032;52.436;13.312;2023-08-31T11:20:44;19.90;99.90
33699;DHT22;20032;52.436;13.312;2023-08-31T11:23:10;20.40;99.90
33699;DHT22;20032;52.436;13.312;2023-08-31T11:25:36;20.90;99.90
33699;DHT22;20032;52.436;13.312;2023-08-31T11:28:03;21.20;99.90
33699;DHT22;20032;52.436;13.312;2023-08-31T11:30:31;21.60;99.90
33699;DHT22;20032;52.436;13.312;2023-08-31T11:33:02;21.60;99.90
33699;DHT22;20032;52.436;13.312;2023-08-31T11:35:33;21.80;99.90
33699;DHT22;20032;52.436;13.312;2023-08-31T11:38:00;22.30;99.90
33699;DHT22;20032;52.436;13.312;2023-08-31T11:40:26;22.60;99.90
33699;DHT22;20032;52.436;13.312;2023-08-31T11:42:52;22.90;99.90
33699;DHT22;20032;52.436;13.312;2023-08-31T11:45:18;22.70;99.90
33699;DHT22;20032;52.436;13.312;2023-08-31T11:47:44;22.80;99.90
33699;DHT22;20032;52.436;13.312;2023-08-31T11:50:11;22.70;99.90
33699;DHT22;20032;52.436;13.312;2023-08-31T11:52:38;22.50;99.90
33699;DHT22;20032;52.436;13.312;2023-08-31T11:55:10;21.70;99.90
33699;DHT22;20032;52.436;13.312;2023-08-31T11:57:36;21.20;99.90
33699;DHT22;20032;52.436;13.312;2023-08-31T12:00:03;20.90;99.90
33699;DHT22;20032;52.436;13.312;2023-08-31T12:02:35;20.60;99.90
33699;DHT22;20032;52.436;13.312;2023-08-31T12:05:01;20.30;99.90
33699;DHT22;20032;52.436;13.312;2023-08-31T12:07:27;19.90;99.90
33699;DHT22;20032;52.436;13.312;2023-08-31T12:09:52;19.60;99.90
33699;DHT22;20032;52.436;13.312;2023-08-31T12:12:20;19.20;99.90
33699;DHT22;20032;52.436;13.312;2023-08-31T12:14:47;19.00;99.90
33699;DHT22;20032;52.436;13.312;2023-08-31T12:17:12;18.90;99.90
33699;DHT22;20032;52.436;13.312;2023-08-31T12:19:38;19.40;99.90
33699;DHT22;20032;52.436;13.312;2023-08-31T12:22:06;20.00;99.90
33699;DHT22;20032;52.436;13.312;2023-08-31T12:24:40;20.10;99.90
33699;DHT22;20032;52.436;13.312;2023-08-31T12:27:06;19.90;99.90
33699;DHT22;20032;52.436;13.312;2023-08-31T12:29:31;19.70;99.90
33699;DHT22;20032;52.436;13.312;2023-08-31T12:31:57;19.40;99.90
33699;DHT22;20032;52.436;13.312;2023-08-31T12:34:23;19.20;99.90
33699;DHT22;20032;52.436;13.312;2023-08-31T12:36:49;19.10;99.90
33699;DHT22;20032;52.436;13.312;2023-08-31T12:39:14;18.90;99.90
33699;DHT22;20032;52.436;13.312;2023-08-31T12:41:40;18.70;99.90
33699;DHT22;20032;52.436;13.312;2023-08-31T12:44:06;18.60;99.90
33699;DHT22;20032;52.436;13.312;2023-08-31T12:46:32;18.30;99.90
33699;DHT22;20032;52.436;13.312;2023-08-31T12:48:59;18.00;99.90
33699;DHT22;20032;52.436;13.312;2023-08-31T12:51:25;18.40;99.90
33699;DHT22;20032;52.436;13.312;2023-08-31T12:53:51;19.20;99.90
33699;DHT22;20032;52.436;13.312;2023-08-31T12:56:17;20.20;99.90
33699;DHT22;20032;52.436;13.312;2023-08-31T12:58:48;21.10;99.90
33699;DHT22;20032;52.436;13.312;2023-08-31T13:01:14;22.00;99.90
33699;DHT22;20032;52.436;13.312;2023-08-31T13:03:39;22.80;99.90
33699;DHT22;20032;52.436;13.312;2023-08-31T13:06:05;23.20;99.90
33699;DHT22;20032;52.436;13.312;2023-08-31T13:08:30;22.90;99.90
33699;DHT22;20032;52.436;13.312;2023-08-31T13:10:56;23.00;99.90
33699;DHT22;20032;52.436;13.312;2023-08-31T13:13:21;23.50;99.90
33699;DHT22;20032;52.436;13.312;2023-08-31T13:15:47;24.10;99.90
33699;DHT22;20032;52.436;13.312;2023-08-31T13:18:13;24.20;99.90
33699;DHT22;20032;52.436;13.312;2023-08-31T13:20:39;24.30;99.90
33699;DHT22;20032;52.436;13.312;2023-08-31T13:23:05;23.40;99.90
33699;DHT22;20032;52.436;13.312;2023-08-31T13:25:31;22.30;99.90
33699;DHT22;20032;52.436;13.312;2023-08-31T13:27:56;21.10;99.90
33699;DHT22;20032;52.436;13.312;2023-08-31T13:30:22;20.60;99.90
33699;DHT22;20032;52.436;13.312;2023-08-31T13:32:48;20.20;99.90
33699;DHT22;20032;52.436;13.312;2023-08-31T13:35:13;19.90;99.90
33699;DHT22;20032;52.436;13.312;2023-08-31T13:37:39;19.70;99.90
33699;DHT22;20032;52.436;13.312;2023-08-31T13:40:05;19.60;99.90
33699;DHT22;20032;52.436;13.312;2023-08-31T13:42:35;19.50;99.90
33699;DHT22;20032;52.436;13.312;2023-08-31T13:45:05;19.40;99.90
33699;DHT22;20032;52.436;13.312;2023-08-31T13:47:32;19.10;99.90
33699;DHT22;20032;52.436;13.312;2023-08-31T13:49:57;18.70;99.90
33699;DHT22;20032;52.436;13.312;2023-08-31T13:52:23;18.40;99.90
33699;DHT22;20032;52.436;13.312;2023-08-31T13:54:48;18.30;99.90
33699;DHT22;20032;52.436;13.312;2023-08-31T13:57:14;18.10;99.90
33699;DHT22;20032;52.436;13.312;2023-08-31T13:59:43;17.70;99.90
33699;DHT22;20032;52.436;13.312;2023-08-31T14:02:08;17.50;99.90
33699;DHT22;20032;52.436;13.312;2023-08-31T14:04:34;17.30;99.90
33699;DHT22;20032;52.436;13.312;2023-08-31T14:06:59;17.20;99.90
33699;DHT22;20032;52.436;13.312;2023-08-31T14:09:27;17.40;99.90
33699;DHT22;20032;52.436;13.312;2023-08-31T14:11:52;17.20;99.90
33699;DHT22;20032;52.436;13.312;2023-08-31T14:14:19;17.00;99.90
33699;DHT22;20032;52.436;13.312;2023-08-31T14:16:45;16.90;99.90
33699;DHT22;20032;52.436;13.312;2023-08-31T14:19:11;16.90;99.90
33699;DHT22;20032;52.436;13.312;2023-08-31T14:21:36;16.90;99.90
33699;DHT22;20032;52.436;13.312;2023-08-31T14:24:02;17.40;99.90
33699;DHT22;20032;52.436;13.312;2023-08-31T14:26:29;17.90;99.90
33699;DHT22;20032;52.436;13.312;2023-08-31T14:28:54;18.00;99.90
33699;DHT22;20032;52.436;13.312;2023-08-31T14:31:20;18.20;99.90
33699;DHT22;20032;52.436;13.312;2023-08-31T14:33:46;18.20;99.90
33699;DHT22;20032;52.436;13.312;2023-08-31T14:36:14;18.40;99.90
33699;DHT22;20032;52.436;13.312;2023-08-31T14:38:40;18.30;99.90
33699;DHT22;20032;52.436;13.312;2023-08-31T14:41:06;18.30;99.90
33699;DHT22;20032;52.436;13.312;2023-08-31T14:43:32;18.30;99.90
33699;DHT22;20032;52.436;13.312;2023-08-31T14:45:57;18.60;99.90
33699;DHT22;20032;52.436;13.312;2023-08-31T14:48:26;18.70;99.90
33699;DHT22;20032;52.436;13.312;2023-08-31T14:50:51;19.00;99.90
33699;DHT22;20032;52.436;13.312;2023-08-31T14:53:17;19.30;99.90
33699;DHT22;20032;52.436;13.312;2023-08-31T14:55:48;19.30;99.90
33699;DHT22;20032;52.436;13.312;2023-08-31T14:58:14;19.20;99.90
33699;DHT22;20032;52.436;13.312;2023-08-31T15:00:39;19.00;99.90
33699;DHT22;20032;52.436;13.312;2023-08-31T15:03:05;18.70;99.90
33699;DHT22;20032;52.436;13.312;2023-08-31T15:05:30;18.60;99.90
33699;DHT22;20032;52.436;13.312;2023-08-31T15:07:56;18.50;99.90
33699;DHT22;20032;52.436;13.312;2023-08-31T15:10:22;18.20;99.90
33699;DHT22;20032;52.436;13.312;2023-08-31T15:12:47;18.10;99.90
33699;DHT22;20032;52.436;13.312;2023-08-31T15:15:13;18.10;99.90
33699;DHT22;20032;52.436;13.312;2023-08-31T15:17:38;18.10;99.90